CFTIW KABI-KTUL
Flight info
| Callsign | CFTIW |
|---|---|
| Flight time | N/A |
| Altitude | 7000 |
| Route | DCT |
| Aircraft | BE58/L-SDE3/1200 |
Departure
| Time | 2026-04-21 16:43 |
|---|---|
| Airport | Abilene Regional Airport (KABI) |
Arrival
| Time | N/A |
|---|---|
| Airport | Tulsa International Airport (KTUL) |
| Time | Latitude | Longitude | Altitude | Speed | Heading |
|---|---|---|---|---|---|
| 2026-04-21 16:09 | 32.41113 | -99.67957 | 1796 ft | 0 kts | 270° |
| 2026-04-21 16:39 | 32.41113 | -99.67947 | 1795 ft | 2 kts | 270° |
| 2026-04-21 16:39 | 32.41113 | -99.67928 | 1796 ft | 2 kts | 270° |
| 2026-04-21 16:39 | 32.41113 | -99.67919 | 1796 ft | 0 kts | 270° |
| 2026-04-21 16:40 | 32.41101 | -99.67927 | 1794 ft | 8 kts | 167° |
| 2026-04-21 16:40 | 32.41043 | -99.67903 | 1796 ft | 10 kts | 158° |
| 2026-04-21 16:40 | 32.40982 | -99.67841 | 1798 ft | 14 kts | 99° |
| 2026-04-21 16:41 | 32.40979 | -99.67732 | 1799 ft | 12 kts | 91° |
| 2026-04-21 16:41 | 32.40956 | -99.67641 | 1798 ft | 13 kts | 154° |
| 2026-04-21 16:41 | 32.40869 | -99.67635 | 1799 ft | 11 kts | 160° |
| 2026-04-21 16:41 | 32.40844 | -99.67580 | 1799 ft | 7 kts | 90° |
| 2026-04-21 16:42 | 32.40844 | -99.67574 | 1799 ft | 0 kts | 90° |
| 2026-04-21 16:42 | 32.40844 | -99.67553 | 1799 ft | 10 kts | 89° |
| 2026-04-21 16:42 | 32.40800 | -99.67474 | 1797 ft | 8 kts | 179° |
| 2026-04-21 16:43 | 32.40655 | -99.67479 | 1795 ft | 40 kts | 179° |
| 2026-04-21 16:43 | 32.40176 | -99.67483 | 1831 ft | 94 kts | 182° |
| 2026-04-21 16:43 | 32.39528 | -99.67470 | 2349 ft | 89 kts | 175° |
| 2026-04-21 16:43 | 32.39000 | -99.67221 | 2925 ft | 80 kts | 139° |
| 2026-04-21 16:44 | 32.38736 | -99.66596 | 3367 ft | 95 kts | 111° |
| 2026-04-21 16:44 | 32.38816 | -99.65815 | 3918 ft | 98 kts | 70° |
| 2026-04-21 16:44 | 32.39413 | -99.65540 | 4345 ft | 105 kts | 343° |
| 2026-04-21 16:44 | 32.40091 | -99.65775 | 4862 ft | 99 kts | 338° |
| 2026-04-21 16:45 | 32.40849 | -99.66089 | 5093 ft | 124 kts | 348° |
| 2026-04-21 16:45 | 32.41691 | -99.65943 | 5537 ft | 123 kts | 17° |
| 2026-04-21 16:45 | 32.42515 | -99.65668 | 6002 ft | 122 kts | 21° |
| 2026-04-21 16:45 | 32.43313 | -99.65336 | 6465 ft | 121 kts | 21° |
| 2026-04-21 16:46 | 32.44112 | -99.65022 | 6902 ft | 121 kts | 22° |
| 2026-04-21 16:46 | 32.44944 | -99.64571 | 7015 ft | 149 kts | 30° |
| 2026-04-21 16:46 | 32.45945 | -99.63966 | 7020 ft | 172 kts | 30° |
| 2026-04-21 16:46 | 32.47046 | -99.63296 | 7016 ft | 183 kts | 30° |
| 2026-04-21 16:47 | 32.48197 | -99.62596 | 7008 ft | 188 kts | 30° |
| 2026-04-21 16:47 | 32.49367 | -99.61889 | 6995 ft | 190 kts | 30° |
| 2026-04-21 16:47 | 32.50424 | -99.60979 | 6997 ft | 187 kts | 49° |
| 2026-04-21 16:47 | 32.51273 | -99.59817 | 6992 ft | 186 kts | 54° |
| 2026-04-21 16:48 | 32.52072 | -99.58609 | 6993 ft | 186 kts | 57° |
| 2026-04-21 16:48 | 32.52829 | -99.57369 | 6985 ft | 186 kts | 58° |
| 2026-04-21 16:48 | 32.53645 | -99.56176 | 6985 ft | 187 kts | 50° |
| 2026-04-21 16:48 | 32.54628 | -99.55157 | 6973 ft | 189 kts | 38° |
| 2026-04-21 16:49 | 32.55719 | -99.54281 | 6982 ft | 189 kts | 37° |
| 2026-04-21 16:49 | 32.56790 | -99.53371 | 6977 ft | 189 kts | 41° |
| 2026-04-21 16:49 | 32.57819 | -99.52403 | 6979 ft | 189 kts | 42° |
| 2026-04-21 16:49 | 32.58845 | -99.51424 | 6976 ft | 190 kts | 42° |
| 2026-04-21 16:50 | 32.59875 | -99.50444 | 6971 ft | 190 kts | 42° |
| 2026-04-21 16:50 | 32.60909 | -99.49462 | 6967 ft | 190 kts | 42° |
| 2026-04-21 16:50 | 32.61941 | -99.48483 | 6968 ft | 190 kts | 42° |
| 2026-04-21 16:50 | 32.62973 | -99.47502 | 6961 ft | 190 kts | 42° |
| 2026-04-21 16:51 | 32.64006 | -99.46521 | 6962 ft | 190 kts | 42° |
| 2026-04-21 16:51 | 32.65038 | -99.45540 | 6959 ft | 191 kts | 43° |
| 2026-04-21 16:51 | 32.66072 | -99.44557 | 6954 ft | 190 kts | 42° |
| 2026-04-21 16:51 | 32.67107 | -99.43572 | 6953 ft | 191 kts | 43° |
| 2026-04-21 16:52 | 32.68143 | -99.42586 | 6948 ft | 191 kts | 42° |
| 2026-04-21 16:52 | 32.69180 | -99.41600 | 6950 ft | 191 kts | 42° |
| 2026-04-21 16:52 | 32.70218 | -99.40611 | 6947 ft | 191 kts | 43° |
| 2026-04-21 16:52 | 32.71255 | -99.39624 | 6946 ft | 191 kts | 42° |
| 2026-04-21 16:53 | 32.72277 | -99.38650 | 6952 ft | 191 kts | 43° |
| 2026-04-21 16:53 | 32.73316 | -99.37660 | 6948 ft | 192 kts | 43° |
| 2026-04-21 16:53 | 32.74355 | -99.36670 | 6950 ft | 192 kts | 43° |
| 2026-04-21 16:53 | 32.75398 | -99.35675 | 6951 ft | 192 kts | 43° |
| 2026-04-21 16:54 | 32.76439 | -99.34683 | 6948 ft | 192 kts | 43° |
| 2026-04-21 16:54 | 32.77481 | -99.33688 | 6948 ft | 192 kts | 43° |
| 2026-04-21 16:54 | 32.78520 | -99.32698 | 6948 ft | 192 kts | 43° |
| 2026-04-21 16:54 | 32.79562 | -99.31703 | 6949 ft | 191 kts | 43° |
| 2026-04-21 16:55 | 32.80601 | -99.30710 | 6953 ft | 192 kts | 43° |
| 2026-04-21 16:55 | 32.81645 | -99.29713 | 6950 ft | 192 kts | 43° |
| 2026-04-21 16:55 | 32.82689 | -99.28716 | 6956 ft | 193 kts | 43° |
| 2026-04-21 16:55 | 32.83734 | -99.27716 | 6958 ft | 192 kts | 43° |
| 2026-04-21 16:56 | 32.84776 | -99.26720 | 6961 ft | 192 kts | 43° |
| 2026-04-21 16:56 | 32.85818 | -99.25724 | 6959 ft | 192 kts | 43° |
| 2026-04-21 16:56 | 32.86863 | -99.24725 | 6960 ft | 193 kts | 43° |
| 2026-04-21 16:56 | 32.87907 | -99.23724 | 6961 ft | 193 kts | 43° |
| 2026-04-21 16:57 | 32.88950 | -99.22726 | 6958 ft | 192 kts | 43° |
| 2026-04-21 16:57 | 32.89996 | -99.21725 | 6963 ft | 192 kts | 43° |
| 2026-04-21 16:57 | 32.91039 | -99.20727 | 6960 ft | 192 kts | 43° |
| 2026-04-21 16:57 | 32.92064 | -99.19743 | 6959 ft | 192 kts | 43° |
| 2026-04-21 16:58 | 32.93105 | -99.18745 | 6963 ft | 192 kts | 43° |
| 2026-04-21 16:58 | 32.94144 | -99.17749 | 6963 ft | 192 kts | 43° |
| 2026-04-21 16:58 | 32.95190 | -99.16746 | 6965 ft | 193 kts | 43° |
| 2026-04-21 16:58 | 32.96232 | -99.15746 | 6962 ft | 193 kts | 43° |
| 2026-04-21 16:59 | 32.97277 | -99.14743 | 6959 ft | 193 kts | 43° |
| 2026-04-21 16:59 | 32.98322 | -99.13740 | 6963 ft | 193 kts | 43° |
| 2026-04-21 16:59 | 32.99365 | -99.12739 | 6959 ft | 192 kts | 43° |
| 2026-04-21 16:59 | 33.00407 | -99.11738 | 6960 ft | 192 kts | 43° |
| 2026-04-21 17:00 | 33.01450 | -99.10735 | 6958 ft | 193 kts | 43° |
| 2026-04-21 17:00 | 33.02492 | -99.09734 | 6958 ft | 193 kts | 42° |
| 2026-04-21 17:00 | 33.03183 | -99.09070 | 6959 ft | 193 kts | 43° |
| 2026-04-21 17:00 | 33.04581 | -99.07726 | 6959 ft | 193 kts | 43° |
| 2026-04-21 17:01 | 33.05623 | -99.06722 | 6957 ft | 193 kts | 42° |
| 2026-04-21 17:01 | 33.06668 | -99.05717 | 6959 ft | 193 kts | 43° |
| 2026-04-21 17:01 | 33.07712 | -99.04711 | 6963 ft | 193 kts | 42° |
| 2026-04-21 17:01 | 33.08759 | -99.03703 | 6957 ft | 193 kts | 42° |
| 2026-04-21 17:02 | 33.09789 | -99.02712 | 6961 ft | 193 kts | 42° |
| 2026-04-21 17:02 | 33.10834 | -99.01704 | 6962 ft | 193 kts | 42° |
| 2026-04-21 17:02 | 33.11879 | -99.00697 | 6959 ft | 193 kts | 42° |
| 2026-04-21 17:02 | 33.12923 | -98.99691 | 6960 ft | 193 kts | 42° |
| 2026-04-21 17:03 | 33.13968 | -98.98682 | 6962 ft | 194 kts | 41° |
| 2026-04-21 17:03 | 33.15019 | -98.97668 | 6964 ft | 194 kts | 42° |
| 2026-04-21 17:03 | 33.16066 | -98.96658 | 6961 ft | 194 kts | 41° |
| 2026-04-21 17:03 | 33.17114 | -98.95646 | 6960 ft | 193 kts | 41° |
| 2026-04-21 17:04 | 33.18158 | -98.94638 | 6968 ft | 193 kts | 41° |
| 2026-04-21 17:04 | 33.19204 | -98.93627 | 6967 ft | 194 kts | 41° |
| 2026-04-21 17:04 | 33.20251 | -98.92615 | 6972 ft | 193 kts | 41° |
| 2026-04-21 17:04 | 33.21297 | -98.91605 | 6966 ft | 194 kts | 41° |
| 2026-04-21 17:05 | 33.22343 | -98.90593 | 6972 ft | 194 kts | 41° |
| 2026-04-21 17:05 | 33.23392 | -98.89578 | 6971 ft | 195 kts | 41° |
| 2026-04-21 17:05 | 33.24444 | -98.88560 | 6974 ft | 195 kts | 41° |
| 2026-04-21 17:05 | 33.25501 | -98.87537 | 6978 ft | 195 kts | 41° |
| 2026-04-21 17:06 | 33.26557 | -98.86515 | 6977 ft | 195 kts | 40° |
| 2026-04-21 17:06 | 33.27611 | -98.85494 | 6977 ft | 195 kts | 40° |
| 2026-04-21 17:06 | 33.28663 | -98.84475 | 6973 ft | 195 kts | 40° |
| 2026-04-21 17:06 | 33.29715 | -98.83456 | 6974 ft | 195 kts | 40° |
| 2026-04-21 17:07 | 33.30412 | -98.82780 | 6978 ft | 195 kts | 40° |
| 2026-04-21 17:07 | 33.31820 | -98.81414 | 6980 ft | 194 kts | 40° |
| 2026-04-21 17:07 | 33.32870 | -98.80396 | 6974 ft | 195 kts | 40° |
| 2026-04-21 17:07 | 33.33921 | -98.79377 | 6978 ft | 194 kts | 40° |
| 2026-04-21 17:08 | 33.34970 | -98.78358 | 6978 ft | 194 kts | 39° |
| 2026-04-21 17:08 | 33.36020 | -98.77338 | 6979 ft | 195 kts | 39° |
| 2026-04-21 17:08 | 33.37057 | -98.76330 | 6982 ft | 195 kts | 39° |
| 2026-04-21 17:08 | 33.38113 | -98.75304 | 6975 ft | 195 kts | 39° |
| 2026-04-21 17:09 | 33.40231 | -98.73246 | 6985 ft | 198 kts | 39° |
| 2026-04-21 17:09 | 33.41299 | -98.72205 | 6988 ft | 197 kts | 39° |
| 2026-04-21 17:09 | 33.42364 | -98.71168 | 6975 ft | 196 kts | 39° |
| 2026-04-21 17:10 | 33.43416 | -98.70146 | 6977 ft | 194 kts | 39° |
| 2026-04-21 17:10 | 33.44462 | -98.69128 | 6972 ft | 194 kts | 39° |
| 2026-04-21 17:10 | 33.45509 | -98.68110 | 6972 ft | 194 kts | 39° |
| 2026-04-21 17:10 | 33.46554 | -98.67091 | 6973 ft | 194 kts | 39° |
| 2026-04-21 17:11 | 33.47599 | -98.66073 | 6974 ft | 193 kts | 39° |
| 2026-04-21 17:11 | 33.48643 | -98.65054 | 6977 ft | 194 kts | 38° |
| 2026-04-21 17:11 | 33.49699 | -98.64025 | 6983 ft | 197 kts | 39° |
| 2026-04-21 17:11 | 33.50761 | -98.62989 | 6984 ft | 196 kts | 39° |
| 2026-04-21 17:12 | 33.51818 | -98.61958 | 6981 ft | 195 kts | 39° |
| 2026-04-21 17:12 | 33.52865 | -98.60936 | 6978 ft | 193 kts | 39° |
| 2026-04-21 17:12 | 33.53907 | -98.59919 | 6985 ft | 193 kts | 39° |
| 2026-04-21 17:12 | 33.54947 | -98.58903 | 6980 ft | 192 kts | 39° |
| 2026-04-21 17:13 | 33.55983 | -98.57890 | 6985 ft | 192 kts | 39° |
| 2026-04-21 17:13 | 33.57006 | -98.56891 | 6982 ft | 192 kts | 39° |
| 2026-04-21 17:13 | 33.58039 | -98.55881 | 6985 ft | 191 kts | 38° |
| 2026-04-21 17:13 | 33.59068 | -98.54876 | 6988 ft | 191 kts | 39° |
| 2026-04-21 17:14 | 33.60100 | -98.53867 | 6988 ft | 191 kts | 39° |
| 2026-04-21 17:14 | 33.61132 | -98.52856 | 6992 ft | 192 kts | 39° |
| 2026-04-21 17:14 | 33.62165 | -98.51844 | 6998 ft | 192 kts | 39° |
| 2026-04-21 17:14 | 33.63201 | -98.50830 | 7002 ft | 193 kts | 39° |
| 2026-04-21 17:15 | 33.64244 | -98.49808 | 7001 ft | 193 kts | 39° |
| 2026-04-21 17:15 | 33.65284 | -98.48789 | 6999 ft | 192 kts | 39° |
| 2026-04-21 17:15 | 33.66317 | -98.47777 | 6999 ft | 191 kts | 39° |
| 2026-04-21 17:15 | 33.67350 | -98.46764 | 7003 ft | 191 kts | 39° |
| 2026-04-21 17:16 | 33.68379 | -98.45756 | 7003 ft | 191 kts | 39° |
| 2026-04-21 17:16 | 33.69411 | -98.44743 | 7001 ft | 192 kts | 39° |
| 2026-04-21 17:16 | 33.70441 | -98.43733 | 7008 ft | 191 kts | 39° |
| 2026-04-21 17:16 | 33.71470 | -98.42722 | 7003 ft | 192 kts | 39° |
| 2026-04-21 17:17 | 33.72502 | -98.41708 | 7010 ft | 191 kts | 39° |
| 2026-04-21 17:17 | 33.73531 | -98.40698 | 7009 ft | 191 kts | 39° |
| 2026-04-21 17:17 | 33.74209 | -98.40031 | 7006 ft | 190 kts | 39° |
| 2026-04-21 17:17 | 33.75233 | -98.39025 | 7005 ft | 190 kts | 39° |
| 2026-04-21 17:18 | 33.76260 | -98.38015 | 7006 ft | 191 kts | 39° |
| 2026-04-21 17:18 | 33.77288 | -98.37004 | 7004 ft | 191 kts | 39° |
| 2026-04-21 17:18 | 33.78320 | -98.35989 | 7006 ft | 192 kts | 39° |
| 2026-04-21 17:18 | 33.79347 | -98.34976 | 7014 ft | 191 kts | 39° |